Time,TemperatureF,DewpointF,PressureIn,WindDirection,WindDirectionDegrees,WindSpeedMPH,WindSpeedGustMPH,Humidity,HourlyPrecipIn,Conditions,Clouds,dailyrainin,SoftwareType,DateUTC
2013-09-28 00:04:00,62.0,59.0,30.20,ESE,111,0.0,0.0,90,0.00,,,0.00,,2013-09-28 04:04:00,
2013-09-28 00:25:00,62.0,59.0,30.21,ESE,111,0.0,0.0,90,0.00,,,0.00,,2013-09-28 04:25:00,
2013-09-28 00:34:00,62.0,59.0,30.21,ESE,111,0.0,0.0,90,0.00,,,0.00,,2013-09-28 04:34:00,
2013-09-28 00:43:00,62.0,59.0,30.21,ESE,111,0.0,0.0,90,0.00,,,0.00,,2013-09-28 04:43:00,
2013-09-28 00:54:00,61.0,58.0,30.21,ESE,111,0.0,0.0,90,0.00,,,0.00,,2013-09-28 04:54:00,
2013-09-28 01:03:00,61.0,58.0,30.21,ESE,111,0.0,0.0,90,0.00,,,0.00,,2013-09-28 05:03:00,
2013-09-28 01:13:00,61.0,58.0,30.21,ESE,111,0.0,0.0,90,0.00,,,0.00,,2013-09-28 05:13:00,
2013-09-28 01:22:00,61.0,58.0,30.21,ESE,111,0.0,0.0,91,0.00,,,0.00,,2013-09-28 05:22:00,
2013-09-28 01:34:00,61.0,58.0,30.21,ESE,111,0.0,0.0,91,0.00,,,0.00,,2013-09-28 05:34:00,
2013-09-28 01:53:00,60.0,57.0,30.21,ESE,111,0.0,0.0,91,0.00,,,0.00,,2013-09-28 05:53:00,
2013-09-28 02:02:00,60.0,57.0,30.21,ESE,111,0.0,0.0,91,0.00,,,0.00,,2013-09-28 06:02:00,
2013-09-28 02:13:00,60.0,57.0,30.21,ESE,111,0.0,0.0,91,0.00,,,0.00,,2013-09-28 06:13:00,
2013-09-28 02:22:00,59.0,57.0,30.22,ESE,111,0.0,0.0,93,0.00,,,0.00,,2013-09-28 06:22:00,
2013-09-28 02:32:00,59.0,57.0,30.22,ESE,111,0.0,0.0,93,0.00,,,0.00,,2013-09-28 06:32:00,
2013-09-28 02:52:00,59.0,57.0,30.21,ESE,111,0.0,0.0,94,0.00,,,0.00,,2013-09-28 06:52:00,
2013-09-28 03:02:00,59.0,57.0,30.21,ESE,111,0.0,0.0,94,0.00,,,0.00,,2013-09-28 07:02:00,
2013-09-28 03:12:00,59.0,57.0,30.21,ESE,111,0.0,0.0,94,0.00,,,0.00,,2013-09-28 07:12:00,
2013-09-28 03:22:00,58.0,56.0,30.21,ESE,111,0.0,0.0,94,0.00,,,0.00,,2013-09-28 07:22:00,
2013-09-28 03:32:00,58.0,56.0,30.21,ESE,111,0.0,0.0,94,0.00,,,0.00,,2013-09-28 07:32:00,
2013-09-28 03:52:00,58.0,56.0,30.20,ESE,111,0.0,0.0,94,0.00,,,0.00,,2013-09-28 07:52:00,
2013-09-28 04:02:00,58.0,56.0,30.20,ESE,111,0.0,0.0,94,0.00,,,0.00,,2013-09-28 08:02:00,
2013-09-28 04:13:00,58.0,56.0,30.20,ESE,111,0.0,0.0,94,0.00,,,0.00,,2013-09-28 08:13:00,
2013-09-28 04:22:00,58.0,56.0,30.20,ESE,111,0.0,0.0,94,0.00,,,0.00,,2013-09-28 08:22:00,
2013-09-28 04:32:00,58.0,56.0,30.20,ESE,111,0.0,0.0,94,0.00,,,0.00,,2013-09-28 08:32:00,
2013-09-28 09:22:00,60.0,56.0,30.27,East,93,0.0,3.0,88,0.00,,,0.00,,2013-09-28 13:22:00,
2013-09-28 09:32:00,60.0,56.0,30.27,East,93,0.0,3.0,88,0.00,,,0.00,,2013-09-28 13:32:00,
2013-09-28 09:52:00,63.0,58.0,30.28,SE,128,0.0,3.0,83,0.00,,,0.00,,2013-09-28 13:52:00,
2013-09-28 10:02:00,63.0,58.0,30.28,SE,128,0.0,3.0,83,0.00,,,0.00,,2013-09-28 14:02:00,
2013-09-28 10:12:00,63.0,58.0,30.28,SE,128,0.0,3.0,83,0.00,,,0.00,,2013-09-28 14:12:00,
2013-09-28 10:21:00,65.0,57.0,30.29,ESE,104,2.0,5.0,75,0.00,,,0.00,,2013-09-28 14:21:00,
2013-09-28 10:32:00,65.0,57.0,30.29,ESE,104,2.0,5.0,75,0.00,,,0.00,,2013-09-28 14:32:00,
2013-09-28 10:42:00,65.0,57.0,30.29,ESE,104,2.0,5.0,75,0.00,,,0.00,,2013-09-28 14:42:00,
2013-09-28 10:52:00,66.0,56.0,30.29,SSE,158,1.0,6.0,70,0.00,,,0.00,,2013-09-28 14:52:00,
2013-09-28 11:02:00,66.0,56.0,30.29,SSE,158,1.0,6.0,70,0.00,,,0.00,,2013-09-28 15:02:00,
2013-09-28 11:03:00,69.0,57.0,30.29,East,84,2.0,6.0,66,0.00,,,0.00,,2013-09-28 15:03:00,
2013-09-28 11:12:00,66.0,56.0,30.29,SSE,158,1.0,6.0,70,0.00,,,0.00,,2013-09-28 15:12:00,
2013-09-28 11:23:00,69.0,57.0,30.29,East,84,2.0,6.0,66,0.00,,,0.00,,2013-09-28 15:23:00,
2013-09-28 11:34:00,69.0,57.0,30.29,East,84,2.0,6.0,66,0.00,,,0.00,,2013-09-28 15:34:00,
2013-09-28 11:44:00,69.0,57.0,30.29,East,84,2.0,6.0,66,0.00,,,0.00,,2013-09-28 15:44:00,
2013-09-28 11:54:00,69.0,57.0,30.29,East,84,2.0,6.0,66,0.00,,,0.00,,2013-09-28 15:54:00,
2013-09-28 12:24:00,72.0,58.0,30.28,East,92,0.0,5.0,62,0.00,,,0.00,,2013-09-28 16:24:00,
2013-09-28 12:34:00,72.0,58.0,30.28,East,92,0.0,5.0,62,0.00,,,0.00,,2013-09-28 16:34:00,
2013-09-28 12:43:00,72.0,58.0,30.28,East,92,0.0,5.0,62,0.00,,,0.00,,2013-09-28 16:43:00,
2013-09-28 12:54:00,72.0,57.0,30.28,SE,139,2.0,6.0,59,0.00,,,0.00,,2013-09-28 16:54:00,
2013-09-28 13:03:00,72.0,57.0,30.28,SE,139,2.0,6.0,59,0.00,,,0.00,,2013-09-28 17:03:00,
2013-09-28 13:13:00,72.0,57.0,30.28,SE,139,2.0,6.0,59,0.00,,,0.00,,2013-09-28 17:13:00,
2013-09-28 13:23:00,74.0,58.0,30.27,SE,143,1.0,5.0,57,0.00,,,0.00,,2013-09-28 17:23:00,
2013-09-28 13:34:00,74.0,58.0,30.27,SE,143,1.0,5.0,57,0.00,,,0.00,,2013-09-28 17:34:00,
2013-09-28 13:52:00,74.0,58.0,30.27,SE,143,1.0,5.0,57,0.00,,,0.00,,2013-09-28 17:52:00,
2013-09-28 14:02:00,74.0,58.0,30.27,SE,143,1.0,5.0,57,0.00,,,0.00,,2013-09-28 18:02:00,
2013-09-28 21:22:00,62.0,57.0,30.20,ESE,117,0.0,0.0,84,0.00,,,0.00,,2013-09-29 01:22:00,
2013-09-28 21:32:00,62.0,57.0,30.20,ESE,117,0.0,0.0,84,0.00,,,0.00,,2013-09-29 01:32:00,
2013-09-28 21:43:00,62.0,57.0,30.20,ESE,117,0.0,0.0,84,0.00,,,0.00,,2013-09-29 01:43:00,
2013-09-28 21:52:00,61.0,57.0,30.20,ESE,117,0.0,0.0,87,0.00,,,0.00,,2013-09-29 01:52:00,
2013-09-28 22:03:00,61.0,57.0,30.20,ESE,117,0.0,0.0,87,0.00,,,0.00,,2013-09-29 02:03:00,
2013-09-28 22:12:00,61.0,57.0,30.20,ESE,117,0.0,0.0,87,0.00,,,0.00,,2013-09-29 02:12:00,
2013-09-28 22:22:00,60.0,56.0,30.21,ESE,117,0.0,0.0,88,0.00,,,0.00,,2013-09-29 02:22:00,
2013-09-28 22:33:00,60.0,56.0,30.21,ESE,117,0.0,0.0,88,0.00,,,0.00,,2013-09-29 02:33:00,
2013-09-28 22:43:00,60.0,56.0,30.21,ESE,117,0.0,0.0,88,0.00,,,0.00,,2013-09-29 02:43:00,
2013-09-28 22:53:00,59.0,56.0,30.21,ESE,117,0.0,0.0,89,0.00,,,0.00,,2013-09-29 02:53:00,
2013-09-28 23:03:00,59.0,56.0,30.21,ESE,117,0.0,0.0,89,0.00,,,0.00,,2013-09-29 03:03:00,
2013-09-28 23:12:00,59.0,56.0,30.21,ESE,117,0.0,0.0,89,0.00,,,0.00,,2013-09-29 03:12:00,
2013-09-28 23:23:00,59.0,56.0,30.21,ESE,117,0.0,0.0,89,0.00,,,0.00,,2013-09-29 03:23:00,
2013-09-28 23:55:00,58.0,55.0,30.22,ESE,117,0.0,0.0,91,0.00,,,0.00,,2013-09-29 03:55:00,